Time;durP1;ratioP1;P1;durP2;ratioP2;P2;SDS_P1;SDS_P2;PMS_P1;PMS_P2;Temp;Humidity;BMP_temperature;BMP_pressure;BME280_temperature;BME280_humidity;BME280_pressure;Samples;Min_cycle;Max_cycle;Signal;HPM_P1;HPM_P2
2023/02/03 00:01:11;;;;;;;5.28;2.85;;;0.20;99.90;;;;;;7399863;19;20419;-85
2023/02/03 00:03:36;;;;;;;4.17;2.63;;;0.20;99.90;;;;;;7401592;19;20316;-88
2023/02/03 00:06:02;;;;;;;4.03;2.70;;;0.20;99.90;;;;;;7401818;19;21283;-85
2023/02/03 00:08:28;;;;;;;5.27;2.67;;;0.20;99.90;;;;;;7403638;19;20320;-90
2023/02/03 00:10:54;;;;;;;4.63;2.53;;;0.20;99.90;;;;;;7402176;19;20325;-88
2023/02/03 00:13:20;;;;;;;4.97;2.87;;;0.30;99.90;;;;;;7398469;19;20300;-89
2023/02/03 00:15:45;;;;;;;3.78;2.65;;;0.30;99.90;;;;;;7400759;19;20384;-87
2023/02/03 00:18:11;;;;;;;4.10;2.70;;;0.30;99.90;;;;;;7402598;19;20360;-88
2023/02/03 00:20:36;;;;;;;2.85;2.55;;;0.40;99.90;;;;;;7401740;19;20328;-90
2023/02/03 00:23:06;;;;;;;2.55;2.17;;;0.50;99.90;;;;;;7399705;19;21471;-89
2023/02/03 00:25:32;;;;;;;2.50;2.20;;;0.40;99.90;;;;;;7399698;19;20329;-87
2023/02/03 00:27:57;;;;;;;4.03;2.10;;;0.40;99.90;;;;;;7401634;19;20352;-88
2023/02/03 00:30:23;;;;;;;5.87;3.00;;;0.50;99.90;;;;;;7403626;19;20376;-88
2023/02/03 00:32:49;;;;;;;2.88;2.35;;;0.50;99.90;;;;;;7402147;19;20312;-84
2023/02/03 00:35:14;;;;;;;3.50;2.40;;;0.50;99.90;;;;;;7403841;19;20304;-88
2023/02/03 00:37:40;;;;;;;4.60;2.40;;;0.60;99.90;;;;;;7400789;19;20754;-85
2023/02/03 00:40:06;;;;;;;2.80;2.07;;;0.60;99.90;;;;;;7404875;19;20331;-87
2023/02/03 00:42:34;;;;;;;2.20;2.00;;;0.60;99.90;;;;;;7403101;19;20333;-87
2023/02/03 00:44:59;;;;;;;2.40;2.20;;;0.60;99.90;;;;;;7404984;19;20350;-93
2023/02/03 00:47:25;;;;;;;4.03;2.72;;;0.70;99.90;;;;;;7404377;19;21040;-84
2023/02/03 00:49:51;;;;;;;4.27;3.20;;;0.70;99.90;;;;;;7405447;19;20321;-84
2023/02/03 00:52:16;;;;;;;4.17;3.20;;;0.60;99.90;;;;;;7402318;19;20358;-89
2023/02/03 00:54:42;;;;;;;5.13;3.63;;;0.60;99.90;;;;;;7403988;19;21870;-89
2023/02/03 00:57:07;;;;;;;6.18;3.58;;;0.60;99.90;;;;;;7404995;19;20664;-86
2023/02/03 00:59:33;;;;;;;5.13;3.80;;;0.70;99.90;;;;;;7402175;19;20336;-88
2023/02/03 01:01:59;;;;;;;3.87;3.47;;;0.70;99.90;;;;;;7399174;19;20333;-87
2023/02/03 01:04:24;;;;;;;4.30;3.10;;;0.80;99.90;;;;;;7400116;19;20321;-90
2023/02/03 01:06:50;;;;;;;4.47;3.40;;;0.80;99.90;;;;;;7402484;19;20317;-86
2023/02/03 01:09:17;;;;;;;5.68;3.40;;;0.90;99.90;;;;;;7401363;19;20309;-86
2023/02/03 01:11:43;;;;;;;5.63;3.87;;;0.80;99.90;;;;;;7401254;19;20335;-89
2023/02/03 01:14:09;;;;;;;5.80;3.58;;;0.90;99.90;;;;;;7402027;19;20400;-89
2023/02/03 01:16:36;;;;;;;6.78;3.50;;;0.90;99.90;;;;;;7399175;19;20356;-83
2023/02/03 01:19:03;;;;;;;4.38;3.35;;;1.10;99.90;;;;;;7397619;19;20320;-84
2023/02/03 01:21:28;;;;;;;6.00;3.80;;;1.00;99.90;;;;;;7396760;19;20349;-82
2023/02/03 01:23:54;;;;;;;4.90;3.47;;;1.00;99.90;;;;;;7389473;19;20337;-79
2023/02/03 01:26:20;;;;;;;4.28;3.60;;;1.10;99.90;;;;;;7396768;19;20324;-82
2023/02/03 01:29:04;;;;;;;4.60;3.47;;;1.10;99.90;;;;;;7396692;19;20309;-82
2023/02/03 01:31:35;;;;;;;6.20;3.65;;;1.20;99.90;;;;;;7292196;19;2018587;-86
2023/02/03 01:34:01;;;;;;;6.55;4.28;;;1.10;99.90;;;;;;7399112;19;20313;-88
2023/02/03 01:36:28;;;;;;;6.07;4.00;;;1.20;99.90;;;;;;7397449;19;20343;-86
2023/02/03 01:38:54;;;;;;;8.25;4.40;;;1.20;99.90;;;;;;7394427;19;20304;-79
2023/02/03 01:41:22;;;;;;;4.97;4.00;;;1.30;99.90;;;;;;7395520;19;20401;-83
2023/02/03 01:43:49;;;;;;;7.00;4.05;;;1.30;99.90;;;;;;7394422;19;20320;-91
2023/02/03 01:46:17;;;;;;;5.88;4.20;;;1.30;99.90;;;;;;7393147;19;20319;-84
2023/02/03 01:48:45;;;;;;;4.67;3.77;;;1.40;99.90;;;;;;7390761;19;20453;-89
2023/02/03 01:51:11;;;;;;;4.78;3.65;;;1.40;99.90;;;;;;7390801;19;20328;-88
2023/02/03 01:53:38;;;;;;;5.57;4.00;;;1.40;99.90;;;;;;7392254;19;20708;-78
2023/02/03 01:56:04;;;;;;;5.53;3.67;;;1.50;99.90;;;;;;7392452;19;20317;-87
2023/02/03 01:58:31;;;;;;;5.07;3.30;;;1.40;99.90;;;;;;7392994;19;20315;-88
2023/02/03 02:00:57;;;;;;;4.97;3.57;;;1.50;99.90;;;;;;7391869;19;20315;-85
2023/02/03 02:03:26;;;;;;;6.40;3.57;;;1.50;99.90;;;;;;7392535;19;20320;-83
2023/02/03 02:06:10;;;;;;;4.85;3.60;;;1.50;99.90;;;;;;7391006;19;20304;-91
2023/02/03 02:08:39;;;;;;;4.78;3.88;;;1.50;99.90;;;;;;7289047;19;2004301;-82
2023/02/03 02:11:05;;;;;;;3.85;3.47;;;1.50;99.90;;;;;;7391637;19;20388;-89
2023/02/03 02:13:33;;;;;;;4.70;3.60;;;1.50;99.90;;;;;;7390144;19;20769;-87
2023/02/03 02:16:09;;;;;;;3.97;3.25;;;1.50;99.90;;;;;;7388635;19;20321;-85
2023/02/03 02:19:00;;;;;;;4.25;3.42;;;1.60;99.90;;;;;;7395298;19;20309;-89
2023/02/03 02:21:40;;;;;;;4.97;3.38;;;1.50;99.90;;;;;;7287809;19;2004709;-87
2023/02/03 02:24:13;;;;;;;6.03;3.05;;;1.60;99.90;;;;;;7402159;19;20313;-83
2023/02/03 02:26:48;;;;;;;3.30;3.00;;;1.60;99.90;;;;;;7405314;19;20344;-83
2023/02/03 02:29:45;;;;;;;4.90;3.60;;;1.70;99.90;;;;;;7405303;19;20750;-85
2023/02/03 02:32:29;;;;;;;4.72;3.20;;;1.70;99.90;;;;;;7306502;19;2004705;-89
2023/02/03 02:35:18;;;;;;;5.03;3.23;;;1.70;99.90;;;;;;7306754;19;2004571;-85
2023/02/03 02:37:51;;;;;;;4.47;3.10;;;1.80;99.90;;;;;;7407814;19;20308;-84
2023/02/03 02:41:03;;;;;;;3.25;2.75;;;1.80;99.90;;;;;;7407266;19;20865;-85
2023/02/03 02:43:40;;;;;;;3.38;2.50;;;1.80;99.90;;;;;;7198237;19;2004233;-81
2023/02/03 02:46:45;;;;;;;4.27;2.53;;;1.80;99.90;;;;;;7404532;19;20323;-82
2023/02/03 02:49:18;;;;;;;4.63;2.60;;;1.80;99.90;;;;;;7302670;19;2004373;-84
2023/02/03 02:51:44;;;;;;;4.10;2.30;;;1.90;99.90;;;;;;7404569;19;21232;-86
2023/02/03 02:54:12;;;;;;;3.22;2.38;;;1.90;99.90;;;;;;7409829;19;20328;-83
2023/02/03 02:56:38;;;;;;;4.07;2.65;;;1.90;99.90;;;;;;7407732;19;20334;-81
2023/02/03 02:59:04;;;;;;;2.47;2.28;;;1.90;99.90;;;;;;7409584;19;20320;-85
2023/02/03 03:01:30;;;;;;;3.20;2.50;;;2.00;99.90;;;;;;7413907;19;20375;-87
2023/02/03 03:03:56;;;;;;;3.20;2.23;;;1.90;99.90;;;;;;7413048;19;20342;-92
2023/02/03 03:06:29;;;;;;;4.78;2.35;;;1.90;99.90;;;;;;7413530;19;20327;-88
2023/02/03 03:09:02;;;;;;;2.65;2.42;;;1.90;99.90;;;;;;7307759;19;2004388;-93
2023/02/03 03:11:34;;;;;;;3.75;2.33;;;1.90;99.90;;;;;;7414336;19;20319;-87
2023/02/03 03:14:00;;;;;;;4.18;2.67;;;1.90;99.90;;;;;;7411967;19;20304;-89
2023/02/03 03:16:26;;;;;;;2.90;2.60;;;1.90;99.90;;;;;;7411456;19;20793;-87
2023/02/03 03:19:04;;;;;;;2.50;2.30;;;1.90;99.90;;;;;;7413186;19;20355;-86
2023/02/03 03:21:57;;;;;;;5.07;2.60;;;1.80;99.90;;;;;;7310630;19;2004388;-90
2023/02/03 03:24:28;;;;;;;3.42;2.35;;;1.90;99.90;;;;;;7308916;19;2004183;-86
2023/02/03 03:27:07;;;;;;;2.88;2.33;;;1.90;99.90;;;;;;7412916;19;20320;-89
2023/02/03 03:29:35;;;;;;;2.35;2.15;;;1.90;99.90;;;;;;7410675;19;20320;-92
2023/02/03 03:32:01;;;;;;;3.50;2.40;;;1.80;99.90;;;;;;7413045;19;20300;-89
2023/02/03 03:34:27;;;;;;;2.47;2.27;;;1.80;99.90;;;;;;7402761;19;20401;-84
2023/02/03 03:37:01;;;;;;;2.65;2.33;;;1.80;99.90;;;;;;7403901;19;20345;-88
2023/02/03 03:40:03;;;;;;;4.00;2.67;;;1.80;99.90;;;;;;7296354;19;2004190;-89
2023/02/03 03:42:35;;;;;;;2.92;2.28;;;1.80;99.90;;;;;;7288410;19;2004175;-90
2023/02/03 03:45:14;;;;;;;2.47;2.27;;;1.80;99.90;;;;;;7400652;19;20885;-88
2023/02/03 03:47:46;;;;;;;2.55;2.35;;;1.70;99.90;;;;;;7406517;19;20313;-90
2023/02/03 03:50:16;;;;;;;2.88;2.40;;;1.70;99.90;;;;;;7405278;19;20309;-90
2023/02/03 03:52:42;;;;;;;2.70;2.22;;;1.70;99.90;;;;;;7408257;19;20304;-92
2023/02/03 03:55:08;;;;;;;2.80;2.30;;;1.70;99.90;;;;;;7404851;19;20297;-87
2023/02/03 03:57:59;;;;;;;2.28;2.10;;;1.70;99.90;;;;;;7407117;19;20325;-90
2023/02/03 04:00:25;;;;;;;2.67;2.47;;;1.70;99.90;;;;;;7304167;19;2004530;-88
2023/02/03 04:02:52;;;;;;;2.43;2.23;;;1.80;99.90;;;;;;7408178;19;20305;-93
2023/02/03 04:05:18;;;;;;;2.40;2.10;;;1.80;99.90;;;;;;7407000;19;20312;-89
2023/02/03 04:07:45;;;;;;;3.30;2.33;;;1.80;99.90;;;;;;7404827;19;20368;-87
2023/02/03 04:10:19;;;;;;;1.75;1.65;;;1.80;99.90;;;;;;7403518;19;20309;-87
2023/02/03 04:12:44;;;;;;;2.30;2.10;;;1.80;99.90;;;;;;7405111;19;20321;-91
2023/02/03 04:15:10;;;;;;;2.17;1.90;;;1.80;99.90;;;;;;7403611;19;20321;-89
2023/02/03 04:17:36;;;;;;;2.15;1.90;;;1.80;99.90;;;;;;7400270;19;20396;-87
2023/02/03 04:20:03;;;;;;;2.10;1.90;;;1.80;99.90;;;;;;7402946;19;20297;-84
2023/02/03 04:22:28;;;;;;;1.80;1.70;;;1.80;99.90;;;;;;7403297;19;20830;-88
2023/02/03 04:24:57;;;;;;;2.00;1.80;;;1.80;99.90;;;;;;7405930;19;20316;-88
2023/02/03 04:27:23;;;;;;;1.90;1.77;;;1.90;99.90;;;;;;7406499;19;20351;-88
2023/02/03 04:29:51;;;;;;;1.60;1.50;;;1.90;99.90;;;;;;7407412;19;20320;-88
2023/02/03 04:32:17;;;;;;;1.85;1.75;;;1.90;99.90;;;;;;7406030;19;20299;-93
2023/02/03 04:34:43;;;;;;;2.27;2.07;;;1.80;99.90;;;;;;7407188;19;20304;-85
2023/02/03 04:37:08;;;;;;;1.88;1.73;;;1.80;99.90;;;;;;7405461;19;20361;-92
2023/02/03 04:39:34;;;;;;;2.03;1.80;;;1.80;99.90;;;;;;7404337;19;20313;-88
2023/02/03 04:42:00;;;;;;;2.00;1.88;;;1.90;99.90;;;;;;7407269;19;20823;-92
2023/02/03 04:44:25;;;;;;;1.90;1.80;;;1.90;99.90;;;;;;7403846;19;20300;-86
2023/02/03 04:46:51;;;;;;;1.70;1.60;;;2.10;99.90;;;;;;7402845;19;20398;-86
2023/02/03 04:49:17;;;;;;;2.07;1.87;;;2.00;99.90;;;;;;7404998;19;20308;-92
2023/02/03 04:51:43;;;;;;;1.98;1.77;;;2.00;99.90;;;;;;7404738;19;20321;-91
2023/02/03 04:54:09;;;;;;;2.00;1.80;;;2.00;99.90;;;;;;7405090;19;20300;-89
2023/02/03 04:56:35;;;;;;;2.53;1.80;;;2.10;99.90;;;;;;7406355;19;20351;-89
2023/02/03 04:59:01;;;;;;;3.03;2.03;;;2.10;99.90;;;;;;7408443;19;20316;-93
2023/02/03 05:01:26;;;;;;;1.80;1.70;;;2.10;99.90;;;;;;7406635;19;20339;-92
2023/02/03 05:03:52;;;;;;;1.80;1.70;;;2.20;99.90;;;;;;7405322;19;20837;-87
2023/02/03 05:06:22;;;;;;;1.77;1.67;;;2.20;99.90;;;;;;7406318;19;20313;-90
2023/02/03 05:08:49;;;;;;;1.77;1.67;;;2.20;99.90;;;;;;7404733;19;20388;-90
2023/02/03 05:11:15;;;;;;;2.15;1.90;;;2.40;99.90;;;;;;7406265;19;20324;-88
2023/02/03 05:13:40;;;;;;;2.17;1.90;;;2.30;99.90;;;;;;7397979;19;20988;-85
2023/02/03 05:16:14;;;;;;;2.08;1.90;;;2.40;99.90;;;;;;7394387;19;20992;-81
2023/02/03 05:18:41;;;;;;;2.03;1.92;;;2.40;99.90;;;;;;7399310;19;20317;-83
2023/02/03 05:21:06;;;;;;;2.30;2.10;;;2.60;99.90;;;;;;7397970;19;20323;-84
2023/02/03 05:23:33;;;;;;;2.40;2.20;;;2.60;99.90;;;;;;7401924;19;20321;-88
2023/02/03 05:25:58;;;;;;;2.90;2.50;;;2.60;99.90;;;;;;7406551;19;20345;-88
2023/02/03 05:28:24;;;;;;;2.73;2.53;;;2.70;99.90;;;;;;7403013;19;20321;-87
2023/02/03 05:30:50;;;;;;;2.70;2.50;;;2.80;99.90;;;;;;7406853;19;20375;-84
2023/02/03 05:33:15;;;;;;;3.30;2.63;;;3.00;99.90;;;;;;7410063;19;20772;-87
2023/02/03 05:35:41;;;;;;;3.10;2.90;;;3.10;99.90;;;;;;7410137;19;20328;-87
2023/02/03 05:38:07;;;;;;;3.60;3.30;;;3.30;99.90;;;;;;7405756;19;20876;-86
2023/02/03 05:43:17;;;;;;;3.63;3.33;;;3.40;99.90;;;;;;7403457;19;20937;-81
2023/02/03 05:45:43;;;;;;;4.20;3.80;;;3.50;99.90;;;;;;7405657;19;20392;-85
2023/02/03 05:48:08;;;;;;;4.30;3.90;;;3.60;99.90;;;;;;7407618;19;20308;-87
2023/02/03 05:50:34;;;;;;;5.63;4.35;;;3.80;99.90;;;;;;7389887;19;20407;-80
2023/02/03 05:53:06;;;;;;;5.00;4.50;;;3.80;99.90;;;;;;7391269;19;21261;-83
2023/02/03 05:55:31;;;;;;;5.47;4.35;;;3.80;99.90;;;;;;7402608;19;20312;-83
2023/02/03 05:57:58;;;;;;;5.23;4.73;;;3.90;99.90;;;;;;7403336;19;20317;-84
2023/02/03 06:00:24;;;;;;;5.75;5.15;;;4.10;99.90;;;;;;7404524;19;20316;-85
2023/02/03 06:02:54;;;;;;;6.55;4.90;;;4.00;99.90;;;;;;7406323;19;20305;-80
2023/02/03 06:05:20;;;;;;;5.57;4.97;;;4.00;99.90;;;;;;7397737;19;20319;-83
2023/02/03 06:07:46;;;;;;;7.63;5.80;;;4.10;99.90;;;;;;7390657;19;20408;-80
2023/02/03 06:10:12;;;;;;;5.75;5.25;;;4.20;99.90;;;;;;7398437;19;20301;-82
2023/02/03 06:12:38;;;;;;;6.50;5.90;;;4.30;99.90;;;;;;7405788;19;20330;-86
2023/02/03 06:15:04;;;;;;;5.97;5.38;;;4.30;99.90;;;;;;7402240;19;20312;-84
2023/02/03 06:17:29;;;;;;;8.35;5.43;;;4.40;99.90;;;;;;7401627;19;20858;-91
2023/02/03 06:19:55;;;;;;;7.03;5.93;;;4.50;99.90;;;;;;7407195;19;20316;-87
2023/02/03 06:22:21;;;;;;;7.53;6.15;;;4.50;99.90;;;;;;7410929;19;20297;-87
2023/02/03 06:24:47;;;;;;;8.27;6.40;;;4.60;99.90;;;;;;7409700;19;20322;-87
2023/02/03 06:27:13;;;;;;;6.90;6.07;;;4.70;99.90;;;;;;7406708;19;20329;-85
2023/02/03 06:29:39;;;;;;;7.75;6.72;;;4.80;99.90;;;;;;7406937;19;20337;-90
2023/02/03 06:32:05;;;;;;;7.38;6.07;;;4.80;99.90;;;;;;7404514;19;20313;-87
2023/02/03 06:34:31;;;;;;;7.23;6.50;;;4.90;99.90;;;;;;7404836;19;20345;-86
2023/02/03 06:36:57;;;;;;;8.00;6.50;;;4.90;99.90;;;;;;7401499;19;20344;-86
2023/02/03 06:39:23;;;;;;;8.33;5.90;;;5.10;99.90;;;;;;7388345;19;20325;-91
2023/02/03 06:41:50;;;;;;;7.28;6.10;;;5.00;99.90;;;;;;7389559;19;20404;-85
2023/02/03 06:44:16;;;;;;;8.55;6.72;;;5.10;99.90;;;;;;7386355;19;20316;-85
2023/02/03 06:46:44;;;;;;;7.60;6.30;;;5.10;99.90;;;;;;7386661;19;20324;-90
2023/02/03 06:49:09;;;;;;;7.32;6.43;;;5.20;99.90;;;;;;7392955;19;20313;-79
2023/02/03 06:51:35;;;;;;;8.15;6.13;;;5.20;99.90;;;;;;7391689;19;21139;-82
2023/02/03 06:54:02;;;;;;;8.23;5.60;;;5.30;99.90;;;;;;7388316;19;20396;-85
2023/02/03 06:56:28;;;;;;;9.30;6.55;;;5.30;99.90;;;;;;7390547;19;20343;-82
2023/02/03 06:58:53;;;;;;;7.73;5.87;;;5.30;99.90;;;;;;7395905;19;20312;-84
2023/02/03 07:01:19;;;;;;;7.60;5.60;;;5.40;99.90;;;;;;7397844;19;20316;-90
2023/02/03 07:03:46;;;;;;;7.87;5.90;;;5.40;99.90;;;;;;7395364;19;20339;-84
2023/02/03 07:06:12;;;;;;;7.70;5.55;;;5.40;99.90;;;;;;7392639;19;20329;-79
2023/02/03 07:08:38;;;;;;;6.67;5.83;;;5.40;99.90;;;;;;7397537;19;20316;-88
2023/02/03 07:11:03;;;;;;;7.18;6.47;;;5.50;99.90;;;;;;7400500;19;20395;-84
2023/02/03 07:13:29;;;;;;;8.32;6.32;;;5.50;99.90;;;;;;7405250;19;20325;-86
2023/02/03 07:15:55;;;;;;;7.23;6.20;;;5.50;99.90;;;;;;7400726;19;20361;-82
2023/02/03 07:18:23;;;;;;;7.07;6.25;;;5.60;99.90;;;;;;7397588;19;20858;-81
2023/02/03 07:20:51;;;;;;;7.20;6.38;;;5.60;99.90;;;;;;7413842;19;20335;-88
2023/02/03 07:23:25;;;;;;;7.63;6.78;;;5.70;99.90;;;;;;7414621;19;20292;-87
2023/02/03 07:25:51;;;;;;;7.70;6.90;;;5.70;99.90;;;;;;7415383;19;20361;-88
2023/02/03 07:28:17;;;;;;;8.37;6.40;;;5.60;99.90;;;;;;7417937;19;20717;-91
2023/02/03 07:30:47;;;;;;;8.98;6.68;;;5.70;99.90;;;;;;7413607;19;20368;-91
2023/02/03 07:33:13;;;;;;;8.63;6.97;;;5.60;99.90;;;;;;7409186;19;20316;-79
2023/02/03 07:35:38;;;;;;;8.70;6.68;;;5.60;99.90;;;;;;7401983;19;20317;-86
2023/02/03 07:38:04;;;;;;;8.87;6.90;;;5.70;99.90;;;;;;7400140;19;20316;-87
2023/02/03 07:40:30;;;;;;;6.88;6.20;;;5.80;99.90;;;;;;7398598;19;20329;-91
2023/02/03 07:42:55;;;;;;;8.20;6.03;;;5.80;99.90;;;;;;7407536;19;20310;-83
2023/02/03 07:45:23;;;;;;;7.32;6.25;;;5.70;99.90;;;;;;7406767;19;20309;-87
2023/02/03 07:47:49;;;;;;;7.95;6.30;;;5.80;99.90;;;;;;7407850;19;20906;-81
2023/02/03 07:50:15;;;;;;;9.15;7.00;;;5.80;99.90;;;;;;7408357;19;20313;-87
2023/02/03 07:52:40;;;;;;;6.77;6.07;;;5.80;99.90;;;;;;7409812;19;20340;-84
2023/02/03 07:55:06;;;;;;;6.97;6.05;;;5.90;99.90;;;;;;7407109;19;20860;-84
2023/02/03 07:57:32;;;;;;;8.70;6.00;;;5.90;99.90;;;;;;7406204;19;20300;-78
2023/02/03 07:59:57;;;;;;;7.00;6.27;;;5.90;99.90;;;;;;7407328;19;20849;-85
2023/02/03 08:02:23;;;;;;;7.17;6.13;;;5.90;99.90;;;;;;7407397;19;20356;-92
2023/02/03 08:04:48;;;;;;;7.28;6.03;;;5.90;99.90;;;;;;7405250;19;20324;-84
2023/02/03 08:07:15;;;;;;;7.57;6.60;;;6.00;99.90;;;;;;7405412;19;20365;-88
2023/02/03 08:09:41;;;;;;;9.65;6.88;;;6.00;99.90;;;;;;7413387;19;20328;-87
2023/02/03 08:12:07;;;;;;;9.27;6.77;;;6.00;99.90;;;;;;7410319;19;20373;-84
2023/02/03 08:14:32;;;;;;;6.85;6.15;;;6.10;99.90;;;;;;7403709;19;20373;-85
2023/02/03 08:16:58;;;;;;;7.03;5.97;;;6.00;99.90;;;;;;7404119;19;20328;-86
2023/02/03 08:19:23;;;;;;;8.70;6.47;;;6.00;99.90;;;;;;7406369;19;20353;-85
2023/02/03 08:21:49;;;;;;;7.70;6.10;;;6.00;99.90;;;;;;7404833;19;20345;-81
2023/02/03 08:24:22;;;;;;;6.50;5.85;;;6.10;99.90;;;;;;7400950;19;20321;-81
2023/02/03 08:26:48;;;;;;;9.82;6.82;;;6.10;99.90;;;;;;7399288;19;20320;-84
2023/02/03 08:29:13;;;;;;;6.70;6.00;;;6.20;99.90;;;;;;7403610;19;20686;-81
2023/02/03 08:31:41;;;;;;;7.82;6.47;;;6.20;99.90;;;;;;7396246;19;20368;-81
2023/02/03 08:34:12;;;;;;;7.60;6.07;;;6.30;99.90;;;;;;7400484;19;20337;-86
2023/02/03 08:36:38;;;;;;;8.23;6.53;;;6.30;99.90;;;;;;7401831;19;20337;-89
2023/02/03 08:39:05;;;;;;;7.07;5.90;;;6.30;99.90;;;;;;7408086;19;20304;-83
2023/02/03 08:41:32;;;;;;;7.88;5.80;;;6.30;99.90;;;;;;7400562;19;20768;-83
2023/02/03 08:43:58;;;;;;;7.33;5.77;;;6.30;99.90;;;;;;7399032;19;20324;-79
2023/02/03 08:46:24;;;;;;;7.90;6.25;;;6.30;99.90;;;;;;7398038;19;20869;-86
2023/02/03 08:48:51;;;;;;;6.97;6.00;;;6.40;99.90;;;;;;7396714;19;20314;-88
2023/02/03 08:51:17;;;;;;;6.55;5.85;;;6.40;99.90;;;;;;7398621;19;20352;-90
2023/02/03 08:53:42;;;;;;;7.77;6.27;;;6.40;99.90;;;;;;7403071;19;20347;-89
2023/02/03 08:56:09;;;;;;;6.68;5.85;;;6.40;99.90;;;;;;7398949;19;20407;-77
2023/02/03 08:58:35;;;;;;;6.63;5.95;;;6.40;99.90;;;;;;7393693;19;20329;-78
2023/02/03 09:01:08;;;;;;;7.60;6.27;;;6.40;99.90;;;;;;7394142;19;20398;-83
2023/02/03 09:03:34;;;;;;;6.82;6.10;;;6.50;99.90;;;;;;7395911;19;20347;-81
2023/02/03 09:06:00;;;;;;;7.07;6.15;;;6.40;99.90;;;;;;7397817;19;20849;-90
2023/02/03 09:08:26;;;;;;;6.23;5.63;;;6.40;99.90;;;;;;7400026;19;20881;-86
2023/02/03 09:10:52;;;;;;;7.25;6.05;;;6.50;99.90;;;;;;7398292;19;20309;-88
2023/02/03 09:13:17;;;;;;;7.82;5.85;;;6.60;99.90;;;;;;7399559;19;20316;-93
2023/02/03 09:15:43;;;;;;;25.40;11.97;;;6.50;99.90;;;;;;7402083;19;20325;-91
2023/02/03 09:18:09;;;;;;;6.50;5.63;;;6.50;99.90;;;;;;7399965;19;20308;-81
2023/02/03 09:20:34;;;;;;;7.10;5.67;;;6.50;99.90;;;;;;7400925;19;20327;-94
2023/02/03 09:23:00;;;;;;;7.10;5.50;;;6.50;99.90;;;;;;7402604;19;20324;-93
2023/02/03 09:25:27;;;;;;;6.83;5.70;;;6.50;99.90;;;;;;7401755;19;20312;-85
2023/02/03 09:27:52;;;;;;;6.00;5.40;;;6.50;99.90;;;;;;7400055;19;20345;-85
2023/02/03 09:30:18;;;;;;;7.00;5.53;;;6.50;99.90;;;;;;7399709;19;20850;-89
2023/02/03 09:32:47;;;;;;;6.30;5.65;;;6.50;99.90;;;;;;7399698;19;20332;-80
2023/02/03 09:35:14;;;;;;;7.43;5.10;;;6.50;99.90;;;;;;7399294;19;20321;-91
2023/02/03 09:37:39;;;;;;;6.20;5.60;;;6.50;99.90;;;;;;7402384;19;20301;-91
2023/02/03 09:40:06;;;;;;;5.63;5.10;;;6.50;99.90;;;;;;7398612;19;20360;-83
2023/02/03 09:42:43;;;;;;;5.35;4.85;;;6.50;99.90;;;;;;7398711;19;20341;-86
2023/02/03 09:45:27;;;;;;;6.90;5.32;;;6.50;99.90;;;;;;7400470;19;20312;-89
2023/02/03 09:47:54;;;;;;;5.70;4.75;;;6.50;99.90;;;;;;7402334;19;20312;-87
2023/02/03 09:50:24;;;;;;;5.38;4.88;;;6.50;99.90;;;;;;7400968;19;20297;-88
2023/02/03 09:52:49;;;;;;;7.63;5.68;;;6.60;99.90;;;;;;7402438;19;20317;-91
2023/02/03 09:55:30;;;;;;;5.13;4.70;;;6.60;99.90;;;;;;7401873;19;20337;-90
2023/02/03 09:58:12;;;;;;;6.00;5.40;;;6.60;99.90;;;;;;7299459;19;2004273;-87
2023/02/03 10:00:53;;;;;;;5.73;5.07;;;6.60;99.90;;;;;;7401708;19;20337;-90
2023/02/03 10:03:36;;;;;;;5.15;4.65;;;6.60;99.90;;;;;;7401653;19;20316;-92
2023/02/03 10:06:38;;;;;;;5.50;4.80;;;6.60;99.90;;;;;;7299137;19;2004617;-90
2023/02/03 10:09:15;;;;;;;5.75;5.00;;;6.60;99.90;;;;;;7296344;19;2004335;-91
2023/02/03 10:11:53;;;;;;;5.15;4.30;;;6.60;99.90;;;;;;7398469;19;20858;-90
2023/02/03 10:14:52;;;;;;;5.88;4.43;;;6.60;99.90;;;;;;7397790;19;20318;-87
2023/02/03 10:17:19;;;;;;;4.68;4.28;;;6.60;99.90;;;;;;7296420;19;2003977;-83
2023/02/03 10:19:50;;;;;;;5.22;4.25;;;6.60;99.90;;;;;;7396674;19;20329;-86
2023/02/03 10:22:20;;;;;;;5.13;4.63;;;6.60;99.90;;;;;;7393899;19;20327;-80
2023/02/03 10:24:53;;;;;;;4.60;4.20;;;6.50;99.90;;;;;;7393722;19;20325;-83
2023/02/03 10:27:20;;;;;;;4.30;3.92;;;6.60;99.90;;;;;;7394438;19;20395;-90
2023/02/03 10:29:52;;;;;;;4.90;4.40;;;6.60;99.90;;;;;;7393192;19;20344;-84
2023/02/03 10:32:17;;;;;;;4.43;3.92;;;6.60;99.90;;;;;;7393089;19;20340;-87
2023/02/03 10:34:44;;;;;;;4.47;4.03;;;6.60;99.90;;;;;;7393515;19;20313;-80
2023/02/03 10:37:46;;;;;;;6.55;4.00;;;6.60;99.90;;;;;;7394627;19;20317;-88
2023/02/03 10:40:13;;;;;;;5.50;3.85;;;6.60;99.90;;;;;;7291129;19;2004236;-93
2023/02/03 10:45:24;;;;;;;4.88;3.60;;;6.60;99.90;;;;;;7400774;19;20321;-86
2023/02/03 10:47:51;;;;;;;4.10;3.70;;;6.60;99.90;;;;;;7398637;19;20639;-91
2023/02/03 10:50:21;;;;;;;3.60;3.30;;;6.60;99.90;;;;;;7399099;19;20312;-87
2023/02/03 10:52:47;;;;;;;4.18;3.78;;;6.60;99.90;;;;;;7398601;19;20345;-88
2023/02/03 10:55:33;;;;;;;4.63;3.88;;;6.80;99.90;;;;;;7396329;19;20329;-88
2023/02/03 10:57:59;;;;;;;4.22;3.83;;;6.70;99.90;;;;;;7297945;19;2004520;-86
2023/02/03 11:00:30;;;;;;;3.60;3.30;;;6.70;99.90;;;;;;7405562;19;20317;-88
2023/02/03 11:02:59;;;;;;;3.17;2.90;;;6.70;99.90;;;;;;7294572;19;2004373;-87
2023/02/03 11:05:27;;;;;;;3.30;3.05;;;6.70;99.90;;;;;;7401342;19;20309;-88
2023/02/03 11:07:53;;;;;;;3.83;3.53;;;6.70;99.90;;;;;;7400784;19;20346;-90
2023/02/03 11:10:28;;;;;;;3.50;3.20;;;6.70;99.90;;;;;;7400904;19;20853;-83
2023/02/03 11:13:18;;;;;;;3.90;3.50;;;6.70;99.90;;;;;;7400590;19;20893;-81
2023/02/03 11:15:55;;;;;;;3.28;3.03;;;6.70;99.90;;;;;;7296368;19;2004209;-88
2023/02/03 11:18:40;;;;;;;3.40;3.10;;;6.70;99.90;;;;;;7401836;19;21089;-89
2023/02/03 11:21:10;;;;;;;3.88;3.58;;;6.80;99.90;;;;;;7297700;19;2004225;-82
2023/02/03 11:23:37;;;;;;;3.60;2.80;;;6.80;99.90;;;;;;7400419;19;20343;-88
2023/02/03 11:26:13;;;;;;;3.47;3.17;;;6.80;99.90;;;;;;7401305;19;20325;-90
2023/02/03 11:28:46;;;;;;;4.10;3.70;;;6.80;99.90;;;;;;7404679;19;20320;-89
2023/02/03 11:31:32;;;;;;;2.95;2.75;;;6.90;99.90;;;;;;7397770;19;20364;-88
2023/02/03 11:34:14;;;;;;;2.70;2.50;;;6.80;99.90;;;;;;7295774;19;2004268;-80
2023/02/03 11:36:39;;;;;;;3.00;2.80;;;6.80;99.90;;;;;;7400682;19;20309;-85
2023/02/03 11:39:25;;;;;;;3.00;2.72;;;6.80;99.90;;;;;;7401387;19;20345;-93
2023/02/03 11:41:51;;;;;;;2.70;2.50;;;6.90;99.90;;;;;;7400878;19;20309;-83
2023/02/03 11:44:21;;;;;;;2.65;2.45;;;6.90;99.90;;;;;;7401274;19;20331;-93
2023/02/03 11:46:49;;;;;;;2.80;2.50;;;7.00;99.90;;;;;;7401596;19;20313;-91
2023/02/03 11:49:19;;;;;;;2.80;2.60;;;6.90;99.90;;;;;;7404406;19;20318;-89
2023/02/03 11:51:54;;;;;;;2.50;2.30;;;7.00;99.90;;;;;;7403849;19;20408;-94
2023/02/03 11:54:41;;;;;;;2.35;2.15;;;7.00;99.90;;;;;;7404058;19;20308;-94
2023/02/03 11:57:29;;;;;;;2.55;2.35;;;7.00;99.90;;;;;;7303582;19;2004383;-92
2023/02/03 12:00:13;;;;;;;1.85;1.75;;;7.10;99.90;;;;;;7404863;19;20325;-81
2023/02/03 12:03:01;;;;;;;1.30;1.20;;;7.00;99.90;;;;;;7299969;19;2004490;-91
2023/02/03 12:05:51;;;;;;;2.20;1.30;;;6.80;99.90;;;;;;7297551;19;2004405;-93
2023/02/03 12:08:41;;;;;;;1.67;1.30;;;6.60;99.90;;;;;;7404505;19;20313;-88
2023/02/03 12:11:17;;;;;;;1.55;1.33;;;6.60;99.90;;;;;;7297499;19;2004166;-91
2023/02/03 12:14:13;;;;;;;1.60;1.40;;;6.50;99.90;;;;;;7400925;19;20365;-92
2023/02/03 12:17:13;;;;;;;2.28;1.50;;;6.60;99.90;;;;;;7300690;19;2004173;-91
2023/02/03 12:20:23;;;;;;;5.67;1.50;;;6.70;99.90;;;;;;7300311;19;2004381;-92
2023/02/03 12:23:13;;;;;;;2.03;1.50;;;6.80;99.90;;;;;;7299002;19;2004078;-88
2023/02/03 12:26:19;;;;;;;3.15;1.85;;;6.80;99.90;;;;;;7298372;19;2004252;-87
2023/02/03 12:29:02;;;;;;;5.13;1.95;;;6.90;99.90;;;;;;7298595;19;2004234;-89
2023/02/03 12:31:38;;;;;;;4.75;1.70;;;6.90;99.90;;;;;;7298495;19;2004141;-90
2023/02/03 12:34:27;;;;;;;2.58;1.70;;;6.80;99.90;;;;;;7401463;19;20323;-84
2023/02/03 12:37:14;;;;;;;5.90;2.05;;;6.80;99.90;;;;;;7404656;19;20328;-89
2023/02/03 12:39:44;;;;;;;5.13;2.08;;;6.80;99.90;;;;;;7299994;19;2015659;-90
2023/02/03 12:42:38;;;;;;;6.57;2.47;;;6.80;99.90;;;;;;7403683;19;20333;-86
2023/02/03 12:45:09;;;;;;;6.43;2.20;;;6.80;99.90;;;;;;7296949;19;2004187;-87
2023/02/03 12:47:38;;;;;;;5.07;2.00;;;7.00;99.90;;;;;;7403035;19;20356;-88
2023/02/03 12:50:05;;;;;;;6.50;2.40;;;7.00;99.90;;;;;;7406101;19;20317;-87
2023/02/03 12:52:51;;;;;;;4.72;2.58;;;7.00;99.90;;;;;;7403549;19;20305;-89
2023/02/03 12:55:36;;;;;;;4.68;2.10;;;7.00;99.90;;;;;;7401630;19;20301;-89
2023/02/03 12:58:05;;;;;;;4.07;2.22;;;7.10;99.90;;;;;;7301482;19;2004447;-89
2023/02/03 13:00:49;;;;;;;9.60;2.50;;;7.30;99.90;;;;;;7402590;19;20329;-83
2023/02/03 13:03:35;;;;;;;6.13;2.35;;;7.40;99.90;;;;;;7405079;19;20313;-89
2023/02/03 13:06:04;;;;;;;4.65;2.47;;;7.50;99.90;;;;;;7302015;19;2004412;-88
2023/02/03 13:08:36;;;;;;;7.43;2.70;;;7.60;99.90;;;;;;7403576;19;20316;-89
2023/02/03 13:11:23;;;;;;;7.63;2.47;;;7.70;99.90;;;;;;7384088;19;20331;-87
2023/02/03 13:13:54;;;;;;;7.17;2.40;;;7.70;99.90;;;;;;7401970;19;20304;-89
2023/02/03 13:16:22;;;;;;;8.43;2.72;;;7.60;99.90;;;;;;7403910;19;20329;-91
2023/02/03 13:18:52;;;;;;;8.27;2.53;;;7.60;99.90;;;;;;7404683;19;20306;-92